Time;durP1;ratioP1;P1;durP2;ratioP2;P2;SDS_P1;SDS_P2;PMS_P1;PMS_P2;Temp;Humidity;BMP_temperature;BMP_pressure;BME280_temperature;BME280_humidity;BME280_pressure;Samples;Min_cycle;Max_cycle;Signal;HPM_P1;HPM_P2
2021/07/19 00:01:57;;;;;;;3.08;2.88;;;26.70;58.70;;;;;;5089876;28;20048;-59
2021/07/19 00:04:24;;;;;;;2.95;2.75;;;26.70;58.70;;;;;;5090246;28;20123;-59
2021/07/19 00:06:52;;;;;;;3.47;3.17;;;26.70;58.70;;;;;;5089532;28;20416;-59
2021/07/19 00:09:20;;;;;;;3.55;3.25;;;26.70;58.70;;;;;;5090205;28;20092;-59
2021/07/19 00:11:49;;;;;;;3.03;2.78;;;26.70;58.70;;;;;;5090297;28;20612;-60
2021/07/19 00:14:16;;;;;;;3.40;3.10;;;26.70;58.70;;;;;;5089554;28;20076;-59
2021/07/19 00:16:43;;;;;;;3.00;2.80;;;26.70;58.70;;;;;;5085655;28;20048;-59
2021/07/19 00:19:10;;;;;;;3.00;2.80;;;26.70;58.70;;;;;;5069894;28;20090;-59
2021/07/19 00:21:37;;;;;;;3.53;3.22;;;26.70;58.70;;;;;;5069387;28;20488;-59
2021/07/19 00:24:06;;;;;;;3.08;2.67;;;26.70;58.70;;;;;;5069386;28;20475;-60
2021/07/19 00:26:33;;;;;;;2.58;2.38;;;26.70;58.60;;;;;;5068967;28;20097;-59
2021/07/19 00:29:00;;;;;;;2.88;2.67;;;26.70;58.60;;;;;;5069852;28;20084;-59
2021/07/19 00:31:31;;;;;;;3.42;3.13;;;26.70;58.60;;;;;;5069766;28;20051;-59
2021/07/19 00:34:00;;;;;;;2.90;2.70;;;26.70;58.60;;;;;;5069351;28;20060;-59
2021/07/19 00:36:28;;;;;;;2.90;2.70;;;26.60;58.60;;;;;;5079178;28;20055;-59
2021/07/19 00:38:55;;;;;;;3.00;2.80;;;26.70;58.70;;;;;;5089439;28;20560;-59
2021/07/19 00:41:23;;;;;;;2.70;2.50;;;26.70;58.70;;;;;;5089317;28;20546;-59
2021/07/19 00:43:50;;;;;;;3.10;2.90;;;26.70;58.70;;;;;;5089781;28;20502;-59
2021/07/19 00:46:17;;;;;;;2.85;2.60;;;26.70;58.70;;;;;;5088509;28;20044;-60
2021/07/19 00:48:45;;;;;;;2.70;2.50;;;26.60;58.60;;;;;;5088817;28;20131;-59
2021/07/19 00:51:12;;;;;;;2.80;2.60;;;26.60;58.60;;;;;;5089406;28;20422;-59
2021/07/19 00:53:39;;;;;;;2.95;2.75;;;26.60;58.60;;;;;;5089450;28;20134;-59
2021/07/19 00:56:08;;;;;;;3.15;2.85;;;26.60;58.60;;;;;;5089082;28;20531;-59
2021/07/19 00:58:40;;;;;;;2.67;2.47;;;26.60;58.60;;;;;;5088985;28;20127;-59
2021/07/19 01:01:07;;;;;;;2.72;2.53;;;26.60;58.70;;;;;;5071818;28;20086;-59
2021/07/19 01:03:36;;;;;;;2.70;2.53;;;26.60;58.60;;;;;;5089664;28;20400;-59
2021/07/19 01:06:03;;;;;;;3.42;2.78;;;26.60;58.60;;;;;;5089325;28;20088;-59
2021/07/19 01:08:32;;;;;;;2.95;2.63;;;26.60;58.60;;;;;;5089027;28;20135;-59
2021/07/19 01:10:59;;;;;;;4.05;2.97;;;26.60;59.20;;;;;;5089042;28;20131;-59
2021/07/19 01:13:27;;;;;;;2.90;2.70;;;26.60;58.60;;;;;;5089152;28;20106;-59
2021/07/19 01:15:55;;;;;;;2.58;2.38;;;26.60;58.60;;;;;;5088877;28;20056;-60
2021/07/19 01:18:22;;;;;;;3.20;2.92;;;26.60;58.60;;;;;;5087320;28;20084;-59
2021/07/19 01:21:30;;;;;;;3.10;2.90;;;26.60;58.60;;;;;;5088810;28;20527;-59
2021/07/19 01:24:27;;;;;;;3.17;2.88;;;26.60;58.60;;;;;;5088484;28;20123;-62
2021/07/19 01:27:28;;;;;;;2.60;2.40;;;26.60;58.70;;;;;;5088769;28;20044;-59
2021/07/19 01:29:57;;;;;;;2.83;2.63;;;26.60;58.70;;;;;;5089215;28;20537;-59
2021/07/19 01:32:25;;;;;;;3.05;2.85;;;26.60;58.70;;;;;;5088618;28;20048;-59
2021/07/19 01:34:54;;;;;;;3.38;3.08;;;26.60;58.70;;;;;;5088637;28;20094;-59
2021/07/19 01:37:22;;;;;;;2.80;2.60;;;26.60;58.70;;;;;;5051433;28;20056;-59
2021/07/19 01:39:50;;;;;;;2.80;2.55;;;26.60;58.60;;;;;;5068716;28;20076;-59
2021/07/19 01:42:18;;;;;;;3.05;2.75;;;26.60;58.60;;;;;;5068066;28;20511;-59
2021/07/19 01:44:46;;;;;;;3.60;3.28;;;26.60;58.60;;;;;;5068295;28;20044;-59
2021/07/19 01:47:14;;;;;;;2.53;2.33;;;26.60;58.60;;;;;;5067903;28;20924;-59
2021/07/19 01:49:43;;;;;;;2.70;2.50;;;26.60;58.60;;;;;;5067539;28;20123;-59
2021/07/19 01:52:12;;;;;;;2.72;2.55;;;26.60;58.50;;;;;;5068284;28;20488;-59
2021/07/19 01:54:41;;;;;;;2.95;2.35;;;26.60;58.50;;;;;;5068137;28;20044;-59
2021/07/19 01:57:09;;;;;;;2.90;2.70;;;26.60;58.50;;;;;;5067580;28;20080;-59
2021/07/19 01:59:37;;;;;;;2.45;2.30;;;26.60;58.50;;;;;;5067064;28;20120;-59
2021/07/19 02:02:06;;;;;;;2.70;2.50;;;26.60;58.50;;;;;;5067290;28;20056;-60
2021/07/19 02:04:33;;;;;;;2.47;2.38;;;26.60;58.50;;;;;;5067892;28;20103;-59
2021/07/19 02:07:01;;;;;;;2.78;2.58;;;26.60;58.40;;;;;;5068002;28;20048;-59
2021/07/19 02:09:30;;;;;;;2.63;2.42;;;26.60;58.40;;;;;;5067880;28;20098;-59
2021/07/19 02:12:00;;;;;;;2.80;2.45;;;26.60;58.40;;;;;;5049531;28;20048;-59
2021/07/19 02:14:28;;;;;;;2.78;2.58;;;26.60;58.50;;;;;;5050163;28;20143;-59
2021/07/19 02:16:57;;;;;;;2.50;2.30;;;26.60;58.50;;;;;;5067105;28;20048;-59
2021/07/19 02:19:26;;;;;;;2.70;2.50;;;26.60;58.40;;;;;;5049097;28;20050;-59
2021/07/19 02:21:53;;;;;;;3.20;2.90;;;26.60;58.50;;;;;;5067691;28;20412;-59
2021/07/19 02:24:26;;;;;;;2.45;2.28;;;26.60;58.40;;;;;;5067368;28;20135;-59
2021/07/19 02:26:54;;;;;;;;;;;26.60;58.40;;;;;;5067635;28;20239;-59
2021/07/19 02:29:22;;;;;;;2.40;2.30;;;26.60;58.50;;;;;;5066182;28;20003;-59
2021/07/19 02:31:50;;;;;;;2.80;2.60;;;26.60;58.50;;;;;;5072519;28;20093;-59
2021/07/19 02:34:22;;;;;;;2.63;2.42;;;26.60;58.50;;;;;;5087650;28;20131;-59
2021/07/19 02:36:50;;;;;;;2.80;2.60;;;26.60;58.50;;;;;;5073626;28;20127;-59
2021/07/19 02:39:18;;;;;;;2.60;2.40;;;26.60;58.50;;;;;;5066895;28;20076;-59
2021/07/19 02:41:46;;;;;;;2.90;2.70;;;26.60;58.50;;;;;;5067138;28;20058;-59
2021/07/19 02:44:14;;;;;;;2.97;2.67;;;26.60;58.50;;;;;;5066514;28;20091;-59
2021/07/19 02:46:41;;;;;;;2.60;2.40;;;26.60;58.50;;;;;;5073051;28;20851;-60
2021/07/19 02:49:11;;;;;;;2.60;2.40;;;26.60;58.40;;;;;;5072852;28;20056;-59
2021/07/19 02:51:38;;;;;;;2.42;2.28;;;26.60;58.40;;;;;;5068681;28;20147;-59
2021/07/19 02:54:07;;;;;;;3.03;2.80;;;26.60;58.40;;;;;;5086521;28;20132;-59
2021/07/19 02:56:37;;;;;;;2.58;2.40;;;26.50;58.40;;;;;;5087850;28;20128;-59
2021/07/19 02:59:05;;;;;;;2.40;2.30;;;26.50;58.40;;;;;;5086280;28;20040;-59
2021/07/19 03:01:33;;;;;;;2.78;2.58;;;26.50;58.40;;;;;;5087704;28;20048;-59
2021/07/19 03:04:02;;;;;;;2.40;2.30;;;26.60;58.40;;;;;;5083344;28;20072;-59
2021/07/19 03:06:36;;;;;;;4.45;2.30;;;26.50;58.40;;;;;;5067319;28;20049;-59
2021/07/19 03:09:05;;;;;;;2.42;2.22;;;26.60;58.40;;;;;;5066715;28;20052;-59
2021/07/19 03:11:44;;;;;;;3.03;2.53;;;26.60;58.40;;;;;;5066253;28;20087;-59
2021/07/19 03:14:15;;;;;;;2.47;2.33;;;26.60;58.40;;;;;;5066082;28;20083;-59
2021/07/19 03:16:45;;;;;;;2.72;2.47;;;26.60;58.40;;;;;;5067250;28;20048;-59
2021/07/19 03:19:13;;;;;;;;;;;26.60;58.30;;;;;;5066457;28;20099;-59
2021/07/19 03:21:42;;;;;;;2.80;2.60;;;26.60;58.30;;;;;;5067076;28;19920;-59
2021/07/19 03:24:12;;;;;;;2.38;2.28;;;26.60;58.30;;;;;;5048165;28;20044;-59
2021/07/19 03:26:42;;;;;;;2.75;2.55;;;26.60;58.30;;;;;;5066799;28;20551;-59
2021/07/19 03:29:11;;;;;;;2.67;2.47;;;26.60;58.30;;;;;;5068759;28;20473;-59
2021/07/19 03:31:39;;;;;;;2.47;2.30;;;26.60;58.30;;;;;;5087612;28;20101;-60
2021/07/19 03:34:07;;;;;;;2.30;2.10;;;26.60;58.30;;;;;;5076688;28;20059;-59
2021/07/19 03:36:35;;;;;;;2.40;2.20;;;26.60;58.30;;;;;;5066438;28;20048;-60
2021/07/19 03:39:05;;;;;;;2.72;2.35;;;26.60;58.30;;;;;;5066771;28;20045;-59
2021/07/19 03:41:33;;;;;;;2.72;2.53;;;26.60;58.30;;;;;;5078228;28;20079;-59
2021/07/19 03:44:01;;;;;;;2.83;2.63;;;26.60;58.30;;;;;;5078356;28;20143;-59
2021/07/19 03:46:29;;;;;;;2.50;2.40;;;26.60;58.30;;;;;;5070233;28;20142;-59
2021/07/19 03:48:58;;;;;;;2.50;2.30;;;26.60;58.30;;;;;;5085008;28;20090;-59
2021/07/19 03:51:28;;;;;;;2.88;2.60;;;26.60;58.30;;;;;;5069131;28;20513;-59
2021/07/19 03:53:55;;;;;;;2.85;2.65;;;26.60;58.30;;;;;;5069565;28;20123;-59
2021/07/19 03:56:27;;;;;;;2.00;1.90;;;26.60;58.30;;;;;;5070008;28;20468;-60
2021/07/19 03:58:56;;;;;;;2.22;2.13;;;26.50;58.20;;;;;;5072927;28;20045;-59
2021/07/19 04:01:24;;;;;;;2.20;2.08;;;26.60;58.30;;;;;;5081941;28;20564;-61
2021/07/19 04:03:54;;;;;;;2.70;2.50;;;26.50;58.20;;;;;;5077540;28;20115;-59
2021/07/19 04:06:23;;;;;;;3.35;2.60;;;26.60;58.30;;;;;;5073748;28;20084;-59
2021/07/19 04:08:51;;;;;;;2.75;2.55;;;26.60;58.30;;;;;;5055436;28;20082;-59
2021/07/19 04:11:20;;;;;;;2.25;2.15;;;26.60;58.20;;;;;;5090269;28;20048;-59
2021/07/19 04:13:48;;;;;;;2.72;2.53;;;26.60;58.20;;;;;;5090881;28;20077;-59
2021/07/19 04:16:21;;;;;;;2.78;2.58;;;26.60;58.10;;;;;;5089261;28;20044;-60
2021/07/19 04:18:49;;;;;;;2.92;2.72;;;26.60;58.10;;;;;;5090099;28;20510;-59
2021/07/19 04:21:17;;;;;;;2.78;2.58;;;26.60;58.10;;;;;;5089158;28;20497;-60
2021/07/19 04:23:45;;;;;;;2.60;2.40;;;26.60;58.00;;;;;;5082165;28;20086;-59
2021/07/19 04:26:13;;;;;;;2.65;2.40;;;26.70;58.00;;;;;;5078566;28;20084;-59
2021/07/19 04:28:41;;;;;;;2.88;2.60;;;26.70;58.00;;;;;;5080212;28;20113;-60
2021/07/19 04:31:09;;;;;;;2.10;2.00;;;26.70;57.90;;;;;;5069850;28;20044;-59
2021/07/19 04:33:36;;;;;;;2.65;2.45;;;26.70;57.90;;;;;;5069711;28;20048;-60
2021/07/19 04:36:03;;;;;;;2.40;2.30;;;26.70;57.80;;;;;;5069377;28;20636;-60
2021/07/19 04:38:32;;;;;;;2.08;1.98;;;26.70;57.80;;;;;;5074533;28;20119;-59
2021/07/19 04:41:03;;;;;;;2.53;2.33;;;26.70;57.70;;;;;;5078144;28;20131;-59
2021/07/19 04:43:30;;;;;;;2.90;2.70;;;26.70;57.70;;;;;;5069044;28;20578;-59
2021/07/19 04:45:57;;;;;;;2.17;2.08;;;26.80;57.80;;;;;;5062910;28;20048;-59
2021/07/19 04:48:24;;;;;;;3.08;2.75;;;26.70;57.70;;;;;;5073596;28;20040;-59
2021/07/19 04:50:52;;;;;;;2.63;2.42;;;26.70;57.70;;;;;;5075036;28;20135;-59
2021/07/19 04:53:19;;;;;;;3.03;2.83;;;26.70;57.70;;;;;;5075257;28;20044;-59
2021/07/19 04:55:49;;;;;;;2.80;2.60;;;26.80;57.90;;;;;;5059131;28;20652;-60
2021/07/19 04:58:20;;;;;;;2.50;2.30;;;26.70;57.80;;;;;;5079355;28;20083;-60
2021/07/19 05:00:55;;;;;;;2.50;2.28;;;26.70;57.90;;;;;;5076399;28;20023;-59
2021/07/19 05:03:25;;;;;;;2.80;2.60;;;26.80;57.90;;;;;;5078212;28;20496;-60
2021/07/19 05:05:55;;;;;;;3.13;2.83;;;26.80;58.00;;;;;;5075746;28;20056;-60
2021/07/19 05:08:25;;;;;;;2.90;2.58;;;26.70;58.00;;;;;;5078236;28;20076;-59
2021/07/19 05:10:53;;;;;;;2.60;2.40;;;26.70;58.10;;;;;;5071524;28;20539;-59
2021/07/19 05:13:21;;;;;;;2.67;2.47;;;26.60;58.20;;;;;;5084860;28;20093;-59
2021/07/19 05:15:48;;;;;;;2.72;2.53;;;26.50;58.40;;;;;;5068565;28;20050;-59
2021/07/19 05:18:17;;;;;;;2.78;2.58;;;26.40;58.60;;;;;;5059068;28;20052;-60
2021/07/19 05:20:50;;;;;;;3.05;2.85;;;26.30;59.00;;;;;;5075482;28;20123;-59
2021/07/19 05:23:25;;;;;;;3.40;3.10;;;26.10;59.50;;;;;;5087789;28;20059;-59
2021/07/19 05:25:53;;;;;;;3.20;2.92;;;25.80;60.00;;;;;;5069304;28;20094;-59
2021/07/19 05:28:20;;;;;;;3.47;3.17;;;25.60;60.80;;;;;;5075402;28;20122;-59
2021/07/19 05:30:50;;;;;;;3.63;3.28;;;25.30;61.60;;;;;;5075836;28;20083;-60
2021/07/19 05:33:19;;;;;;;3.20;2.90;;;25.00;62.20;;;;;;5072869;28;20082;-59
2021/07/19 05:35:46;;;;;;;4.45;3.58;;;24.70;62.70;;;;;;5074368;28;20514;-60
2021/07/19 05:38:15;;;;;;;4.07;3.60;;;24.50;63.10;;;;;;5075659;28;20132;-59
2021/07/19 05:40:43;;;;;;;3.60;3.08;;;24.40;63.50;;;;;;5072920;28;20812;-59
2021/07/19 05:43:10;;;;;;;3.13;2.90;;;24.20;63.70;;;;;;5074761;28;20147;-59
2021/07/19 05:45:37;;;;;;;3.53;3.05;;;24.10;63.90;;;;;;5077113;28;20131;-58
2021/07/19 05:48:06;;;;;;;3.63;3.33;;;23.90;64.10;;;;;;5058470;28;20056;-59
2021/07/19 05:50:35;;;;;;;3.90;3.50;;;23.90;64.20;;;;;;5071878;28;20544;-59
2021/07/19 05:53:04;;;;;;;3.25;2.95;;;23.80;64.20;;;;;;5076411;28;20154;-59
2021/07/19 05:55:34;;;;;;;4.10;3.22;;;23.70;64.20;;;;;;5071989;28;20541;-60
2021/07/19 05:58:01;;;;;;;4.07;3.67;;;23.60;64.40;;;;;;5074081;28;20497;-59
2021/07/19 06:00:28;;;;;;;4.88;3.70;;;23.60;64.80;;;;;;5073595;28;20080;-57
2021/07/19 06:02:56;;;;;;;6.88;3.78;;;23.50;65.00;;;;;;5069291;28;20079;-59
2021/07/19 06:05:24;;;;;;;4.22;3.70;;;23.50;65.60;;;;;;5069771;28;20040;-59
2021/07/19 06:07:51;;;;;;;5.85;4.38;;;23.40;65.90;;;;;;5070362;28;20052;-59
2021/07/19 06:10:18;;;;;;;5.00;3.97;;;23.40;65.90;;;;;;5069060;28;20499;-59
2021/07/19 06:12:47;;;;;;;4.70;4.10;;;23.40;66.00;;;;;;5068419;28;20226;-58
2021/07/19 06:15:14;;;;;;;5.20;4.10;;;23.40;66.00;;;;;;5052050;28;20080;-59
2021/07/19 06:17:42;;;;;;;4.93;4.13;;;23.40;66.20;;;;;;5071537;28;20443;-59
2021/07/19 06:20:19;;;;;;;5.60;4.32;;;23.30;66.30;;;;;;5072897;28;20076;-58
2021/07/19 06:22:47;;;;;;;4.88;4.10;;;23.30;66.30;;;;;;5076166;28;20138;-62
2021/07/19 06:25:16;;;;;;;6.93;4.20;;;23.20;66.20;;;;;;5077380;28;20102;-59
2021/07/19 06:27:44;;;;;;;5.38;4.20;;;23.30;66.30;;;;;;5075448;28;20131;-59
2021/07/19 06:30:14;;;;;;;6.78;4.40;;;23.20;66.30;;;;;;5070696;28;20076;-59
2021/07/19 06:32:42;;;;;;;4.95;4.35;;;23.20;66.50;;;;;;5061506;28;20131;-59
2021/07/19 06:35:10;;;;;;;10.27;4.70;;;23.20;66.50;;;;;;5075114;28;20087;-59
2021/07/19 06:37:38;;;;;;;6.18;5.32;;;23.10;66.60;;;;;;5070348;28;20587;-60
2021/07/19 06:40:08;;;;;;;10.05;5.25;;;23.10;66.70;;;;;;5080295;28;20098;-60
2021/07/19 06:42:35;;;;;;;5.10;4.57;;;23.10;66.40;;;;;;5075643;28;20071;-58
2021/07/19 06:45:05;;;;;;;5.88;5.22;;;23.10;66.10;;;;;;5076675;28;20144;-59
2021/07/19 06:47:33;;;;;;;9.90;5.07;;;23.20;66.20;;;;;;5072849;28;20544;-59
2021/07/19 06:50:00;;;;;;;7.03;5.45;;;23.20;66.10;;;;;;5074920;28;20122;-58
2021/07/19 06:52:27;;;;;;;7.90;5.03;;;23.20;65.70;;;;;;5055484;28;20500;-58
2021/07/19 06:54:54;;;;;;;7.88;5.72;;;23.20;65.90;;;;;;5073812;28;20084;-56
2021/07/19 06:57:22;;;;;;;9.27;5.65;;;23.10;66.00;;;;;;5075756;28;20515;-59
2021/07/19 06:59:49;;;;;;;7.10;5.60;;;23.10;66.50;;;;;;5076058;28;20128;-54
2021/07/19 07:02:16;;;;;;;9.60;5.75;;;23.20;66.60;;;;;;5070654;28;20044;-54
2021/07/19 07:04:44;;;;;;;8.13;6.00;;;23.20;66.60;;;;;;5072274;28;20164;-56
2021/07/19 07:07:12;;;;;;;6.90;5.45;;;23.20;66.50;;;;;;5080680;28;20044;-59
2021/07/19 07:09:39;;;;;;;8.50;5.72;;;23.20;66.40;;;;;;5078893;28;20128;-59
2021/07/19 07:12:20;;;;;;;10.40;5.70;;;23.30;66.20;;;;;;5079663;28;20498;-56
2021/07/19 07:14:47;;;;;;;9.18;5.82;;;23.30;66.00;;;;;;5078919;28;20101;-59
2021/07/19 07:17:15;;;;;;;6.05;5.40;;;23.30;65.80;;;;;;5057906;28;20075;-59
2021/07/19 07:19:43;;;;;;;8.52;5.25;;;23.30;65.60;;;;;;5072438;28;20135;-59
2021/07/19 07:22:10;;;;;;;8.68;5.40;;;23.40;65.50;;;;;;5075319;28;20062;-59
2021/07/19 07:24:41;;;;;;;5.90;5.20;;;23.40;65.50;;;;;;5081014;28;20076;-59
2021/07/19 07:27:10;;;;;;;5.72;4.70;;;23.40;65.40;;;;;;5079633;28;20055;-59
2021/07/19 07:29:37;;;;;;;5.50;4.82;;;23.30;65.60;;;;;;5079405;28;20677;-59
2021/07/19 07:32:06;;;;;;;6.13;5.10;;;23.40;65.70;;;;;;5072722;28;20080;-59
2021/07/19 07:34:34;;;;;;;5.70;5.10;;;23.40;65.80;;;;;;5077183;28;20258;-59
2021/07/19 07:37:02;;;;;;;5.75;4.82;;;23.40;65.60;;;;;;5081798;28;20063;-60
2021/07/19 07:39:29;;;;;;;8.35;4.93;;;23.40;65.80;;;;;;5081260;28;20660;-59
2021/07/19 07:41:56;;;;;;;11.27;4.82;;;23.50;65.70;;;;;;5079599;28;20458;-59
2021/07/19 07:44:25;;;;;;;9.68;5.68;;;23.50;65.80;;;;;;5076963;28;20082;-59
2021/07/19 07:46:52;;;;;;;5.40;4.90;;;23.50;65.90;;;;;;5075915;28;20145;-59
2021/07/19 07:49:21;;;;;;;8.65;5.05;;;23.60;66.10;;;;;;5076728;28;20477;-61
2021/07/19 07:51:49;;;;;;;5.72;5.13;;;23.60;65.90;;;;;;5079076;28;20113;-60
2021/07/19 07:54:16;;;;;;;5.80;5.20;;;23.60;66.10;;;;;;5076887;28;20110;-60
2021/07/19 07:56:44;;;;;;;6.45;4.90;;;23.60;66.30;;;;;;5075967;28;20040;-59
2021/07/19 07:59:27;;;;;;;4.57;4.18;;;23.60;66.30;;;;;;5073738;28;20121;-59
2021/07/19 08:01:54;;;;;;;8.32;5.20;;;23.60;66.40;;;;;;5083356;28;20075;-59
2021/07/19 08:04:22;;;;;;;6.10;5.13;;;23.60;66.50;;;;;;5073983;28;20109;-59
2021/07/19 08:06:52;;;;;;;7.30;5.05;;;23.60;66.60;;;;;;5064856;28;20122;-59
2021/07/19 08:09:19;;;;;;;5.15;4.50;;;23.60;66.60;;;;;;5080810;28;20127;-59
2021/07/19 08:11:46;;;;;;;5.15;4.57;;;23.70;66.60;;;;;;5077479;28;20052;-59
2021/07/19 08:14:13;;;;;;;5.15;4.43;;;23.70;66.70;;;;;;5082087;28;20044;-59
2021/07/19 08:16:41;;;;;;;7.43;5.13;;;23.70;66.60;;;;;;5071820;28;20094;-59
2021/07/19 08:19:10;;;;;;;6.85;4.97;;;23.70;66.70;;;;;;5078478;28;20066;-59
2021/07/19 08:21:39;;;;;;;5.15;4.65;;;23.80;67.40;;;;;;5086969;28;20499;-58
2021/07/19 08:24:07;;;;;;;6.60;5.55;;;23.80;66.90;;;;;;5078090;28;20091;-58
2021/07/19 08:26:34;;;;;;;5.15;4.57;;;23.80;66.80;;;;;;5077138;28;20127;-59
2021/07/19 08:29:04;;;;;;;6.10;4.50;;;23.80;67.00;;;;;;5081039;28;20052;-59
2021/07/19 08:31:33;;;;;;;5.80;5.20;;;23.90;66.90;;;;;;5083165;28;20048;-58
2021/07/19 08:34:04;;;;;;;10.15;4.47;;;23.80;66.80;;;;;;5079435;28;20079;-58
2021/07/19 08:36:31;;;;;;;7.45;5.13;;;23.80;66.90;;;;;;5074013;28;20052;-58
2021/07/19 08:38:58;;;;;;;5.97;5.10;;;23.80;67.00;;;;;;5082407;28;20043;-58
2021/07/19 08:41:26;;;;;;;6.90;5.35;;;23.90;67.10;;;;;;5080748;28;20051;-58
2021/07/19 08:43:54;;;;;;;5.32;4.78;;;23.90;67.10;;;;;;5081241;28;20479;-59
2021/07/19 08:46:21;;;;;;;6.85;5.10;;;23.90;67.10;;;;;;5082319;28;20044;-58
2021/07/19 08:48:52;;;;;;;7.18;5.32;;;23.90;67.00;;;;;;5084145;28;20048;-58
2021/07/19 08:51:20;;;;;;;6.32;5.13;;;24.00;66.90;;;;;;5063020;28;20518;-59
2021/07/19 08:53:48;;;;;;;6.50;5.00;;;24.00;66.90;;;;;;5079455;28;20688;-58
2021/07/19 08:56:15;;;;;;;7.93;4.70;;;24.00;66.90;;;;;;5077996;28;20048;-58
2021/07/19 08:58:44;;;;;;;7.47;5.35;;;24.00;66.90;;;;;;5077832;28;20387;-58
2021/07/19 09:01:12;;;;;;;7.50;5.07;;;24.00;67.00;;;;;;5076339;28;20046;-59
2021/07/19 09:03:40;;;;;;;7.15;5.53;;;24.00;67.30;;;;;;5076074;28;20126;-58
2021/07/19 09:06:11;;;;;;;6.38;5.45;;;23.90;67.40;;;;;;5073955;28;20044;-58
2021/07/19 09:08:49;;;;;;;5.57;4.95;;;23.90;67.70;;;;;;5081421;28;20128;-58
2021/07/19 09:11:18;;;;;;;5.70;4.53;;;23.80;67.80;;;;;;5076716;28;20052;-58
2021/07/19 09:14:00;;;;;;;7.20;5.57;;;23.80;68.10;;;;;;5081229;28;20114;-58
2021/07/19 09:16:39;;;;;;;7.13;5.28;;;23.80;68.20;;;;;;5081707;28;20048;-59
2021/07/19 09:19:11;;;;;;;7.28;5.72;;;23.70;68.20;;;;;;5077163;28;20054;-59
2021/07/19 09:21:39;;;;;;;6.90;5.05;;;23.70;68.30;;;;;;5077617;28;20135;-59
2021/07/19 09:24:10;;;;;;;6.60;5.32;;;23.70;68.30;;;;;;5078509;28;20129;-59
2021/07/19 09:26:41;;;;;;;9.25;5.43;;;23.60;68.40;;;;;;5071612;28;20121;-59
2021/07/19 09:29:11;;;;;;;8.05;5.25;;;23.60;68.40;;;;;;5076981;28;20397;-59
2021/07/19 09:31:42;;;;;;;6.32;5.45;;;23.60;68.40;;;;;;5079102;28;20048;-59
2021/07/19 09:34:16;;;;;;;;;;;23.60;68.40;;;;;;5076652;28;20496;-58
2021/07/19 09:36:55;;;;;;;6.13;5.03;;;23.60;68.40;;;;;;5076487;28;19951;-58
2021/07/19 09:39:23;;;;;;;7.30;5.55;;;23.70;68.40;;;;;;5071186;28;20044;-62
2021/07/19 09:41:50;;;;;;;7.65;4.93;;;23.70;68.20;;;;;;5077006;28;20099;-59
2021/07/19 09:44:22;;;;;;;7.30;5.03;;;23.70;68.10;;;;;;5075473;28;20477;-60
2021/07/19 09:47:03;;;;;;;5.85;5.20;;;23.70;68.20;;;;;;5071855;28;20126;-59
2021/07/19 09:49:32;;;;;;;6.80;6.10;;;23.60;68.40;;;;;;5079293;28;20083;-59
2021/07/19 09:52:05;;;;;;;6.32;5.55;;;23.60;68.70;;;;;;5074716;28;20131;-59
2021/07/19 09:54:35;;;;;;;6.80;5.97;;;23.50;68.70;;;;;;5075903;28;20048;-59
2021/07/19 09:57:04;;;;;;;7.55;5.88;;;23.50;68.90;;;;;;5079511;28;20147;-59
2021/07/19 09:59:33;;;;;;;6.60;5.43;;;23.50;68.90;;;;;;5073505;28;20040;-59
2021/07/19 10:02:01;;;;;;;8.27;5.53;;;23.50;68.90;;;;;;5072270;28;20135;-59
2021/07/19 10:04:28;;;;;;;7.28;5.45;;;23.50;68.80;;;;;;5072309;28;20079;-59
2021/07/19 10:06:58;;;;;;;5.80;5.18;;;23.50;68.60;;;;;;5077187;28;20044;-60
2021/07/19 10:09:27;;;;;;;6.55;5.72;;;23.60;68.50;;;;;;5076753;28;20052;-58
2021/07/19 10:11:56;;;;;;;5.85;5.25;;;23.60;68.40;;;;;;5074790;28;20454;-59
2021/07/19 10:14:33;;;;;;;5.63;5.05;;;23.60;68.20;;;;;;5072352;28;20075;-59
2021/07/19 10:17:04;;;;;;;7.32;5.53;;;23.60;68.10;;;;;;5070070;28;20052;-59
2021/07/19 10:19:35;;;;;;;6.07;5.45;;;23.60;68.10;;;;;;5075703;28;20086;-58
2021/07/19 10:22:02;;;;;;;6.43;5.05;;;23.60;68.10;;;;;;5073163;28;20098;-58
2021/07/19 10:24:30;;;;;;;7.35;5.40;;;23.60;67.90;;;;;;5073579;28;20535;-58
2021/07/19 10:26:57;;;;;;;5.15;4.65;;;23.60;67.80;;;;;;5074130;28;20496;-58
2021/07/19 10:29:25;;;;;;;5.60;5.10;;;23.70;67.70;;;;;;5073902;28;20048;-61
2021/07/19 10:31:52;;;;;;;6.03;5.00;;;23.80;67.50;;;;;;5071227;28;20076;-58
2021/07/19 10:34:20;;;;;;;5.32;4.82;;;23.90;67.30;;;;;;5079001;28;20054;-57
2021/07/19 10:37:00;;;;;;;7.72;5.43;;;23.90;67.20;;;;;;5070685;28;20050;-59
2021/07/19 10:39:35;;;;;;;5.95;5.32;;;23.90;67.20;;;;;;5075553;28;20105;-59
2021/07/19 10:42:09;;;;;;;8.18;5.20;;;23.90;67.30;;;;;;5072649;28;20101;-58
2021/07/19 10:44:40;;;;;;;5.30;4.80;;;23.90;67.30;;;;;;5074594;28;20094;-57
2021/07/19 10:47:21;;;;;;;6.47;4.78;;;23.90;67.30;;;;;;5069437;28;20516;-58
2021/07/19 10:50:02;;;;;;;4.80;4.32;;;23.90;67.30;;;;;;5078857;28;20066;-58
2021/07/19 10:52:33;;;;;;;6.35;5.07;;;23.90;67.30;;;;;;5079049;28;20076;-58
2021/07/19 10:55:02;;;;;;;5.90;4.80;;;23.90;67.30;;;;;;5082224;28;20044;-58
2021/07/19 10:57:37;;;;;;;6.68;5.28;;;23.90;67.50;;;;;;5074470;28;20775;-60
2021/07/19 11:00:07;;;;;;;5.78;5.00;;;23.90;67.50;;;;;;5072361;28;20201;-58
2021/07/19 11:02:34;;;;;;;5.82;4.55;;;23.90;67.50;;;;;;5070514;28;20128;-57
2021/07/19 11:05:02;;;;;;;5.65;4.88;;;23.90;67.40;;;;;;5074171;28;21466;-58
2021/07/19 11:07:40;;;;;;;5.90;4.75;;;23.90;67.40;;;;;;5073291;28;20051;-58
2021/07/19 11:10:16;;;;;;;5.90;4.75;;;23.90;67.50;;;;;;5076403;28;20125;-58
2021/07/19 11:12:56;;;;;;;6.80;4.95;;;23.90;67.50;;;;;;5066103;28;20165;-58
2021/07/19 11:15:35;;;;;;;5.60;5.03;;;23.80;67.50;;;;;;5075418;28;20134;-58
2021/07/19 11:18:15;;;;;;;4.88;4.18;;;23.80;67.70;;;;;;5070302;28;20050;-54
2021/07/19 11:20:44;;;;;;;4.97;4.47;;;23.80;67.90;;;;;;5075201;28;20445;-57
2021/07/19 11:23:12;;;;;;;5.55;4.93;;;23.80;68.00;;;;;;5070613;28;20459;-57
2021/07/19 11:25:55;;;;;;;5.95;4.47;;;23.80;68.10;;;;;;5072490;28;20048;-59
2021/07/19 11:28:26;;;;;;;5.57;5.07;;;23.80;68.20;;;;;;5072104;28;20067;-56
2021/07/19 11:31:13;;;;;;;4.93;4.45;;;23.80;68.30;;;;;;5077578;28;20066;-57
2021/07/19 11:33:42;;;;;;;9.90;5.13;;;23.80;68.40;;;;;;5078579;28;20134;-59
2021/07/19 11:36:37;;;;;;;5.88;5.13;;;23.80;68.50;;;;;;5074992;28;20113;-58
2021/07/19 11:39:04;;;;;;;5.68;4.90;;;23.80;68.60;;;;;;5060919;28;20084;-58
2021/07/19 11:41:33;;;;;;;4.55;4.15;;;23.80;68.50;;;;;;5072212;28;20148;-58
2021/07/19 11:44:02;;;;;;;5.60;4.65;;;23.80;68.40;;;;;;5065191;28;20558;-58
2021/07/19 11:46:32;;;;;;;5.70;5.07;;;23.80;68.20;;;;;;5075713;28;20116;-60
2021/07/19 11:49:09;;;;;;;5.95;4.93;;;23.80;68.10;;;;;;5074546;28;20048;-58
2021/07/19 11:51:44;;;;;;;5.47;4.97;;;23.80;68.10;;;;;;5071067;28;20556;-58
2021/07/19 11:54:13;;;;;;;8.18;5.35;;;23.90;68.20;;;;;;5072233;28;20056;-59
2021/07/19 11:56:47;;;;;;;5.22;4.57;;;23.90;68.00;;;;;;5072924;28;20105;-59
2021/07/19 11:59:19;;;;;;;5.47;4.88;;;24.00;68.00;;;;;;5077901;28;20121;-59
2021/07/19 12:01:55;;;;;;;5.40;4.90;;;24.10;67.80;;;;;;5073642;28;20123;-59
2021/07/19 12:04:35;;;;;;;6.82;4.72;;;24.10;67.60;;;;;;5075788;28;20118;-60
2021/07/19 12:07:02;;;;;;;5.70;5.10;;;24.10;67.40;;;;;;5075869;28;20129;-59
2021/07/19 12:09:30;;;;;;;6.68;5.30;;;24.10;67.30;;;;;;5082388;28;20048;-59
2021/07/19 12:11:57;;;;;;;6.30;5.50;;;24.20;67.40;;;;;;5077880;28;20051;-60
2021/07/19 12:14:25;;;;;;;6.63;5.50;;;24.10;67.50;;;;;;5072893;28;20132;-59
2021/07/19 12:16:52;;;;;;;6.78;5.50;;;24.10;67.50;;;;;;5073160;28;20419;-59
2021/07/19 12:19:21;;;;;;;7.10;5.75;;;24.10;67.60;;;;;;5058260;28;20085;-60
2021/07/19 12:21:54;;;;;;;7.45;5.25;;;24.00;67.70;;;;;;5076986;28;20063;-59
2021/07/19 12:24:25;;;;;;;5.97;5.28;;;24.00;67.80;;;;;;5079351;28;20095;-60
2021/07/19 12:27:01;;;;;;;6.25;5.32;;;24.00;68.10;;;;;;5079032;28;20090;-60
2021/07/19 12:29:34;;;;;;;6.75;5.72;;;24.00;68.10;;;;;;5080771;28;20059;-59
2021/07/19 12:32:04;;;;;;;6.10;5.50;;;24.00;68.20;;;;;;5079553;28;20044;-59
2021/07/19 12:34:35;;;;;;;5.70;5.03;;;24.00;68.30;;;;;;5077657;28;20048;-59
2021/07/19 12:37:05;;;;;;;6.53;5.63;;;24.00;68.30;;;;;;5079328;28;20047;-61
2021/07/19 12:39:34;;;;;;;;;;;24.00;68.30;;;;;;5060997;28;20139;-60
2021/07/19 12:42:07;;;;;;;5.93;5.32;;;24.00;68.40;;;;;;5076668;28;19927;-60
2021/07/19 12:44:35;;;;;;;5.60;5.10;;;24.00;68.40;;;;;;5082905;28;20071;-57
2021/07/19 12:47:03;;;;;;;6.85;5.38;;;23.90;68.40;;;;;;5080917;28;20131;-59
2021/07/19 12:49:38;;;;;;;6.43;5.72;;;23.90;68.50;;;;;;5082527;28;20142;-59
2021/07/19 12:52:20;;;;;;;6.40;5.80;;;23.90;68.60;;;;;;5076800;28;20047;-59
2021/07/19 12:55:11;;;;;;;6.00;5.40;;;23.90;68.60;;;;;;5076082;28;20070;-59
2021/07/19 12:57:48;;;;;;;6.88;6.05;;;23.80;68.60;;;;;;5078079;28;20386;-60
2021/07/19 13:00:17;;;;;;;6.45;5.82;;;23.80;68.60;;;;;;5074886;28;20082;-59
2021/07/19 13:02:45;;;;;;;6.47;5.78;;;23.80;68.60;;;;;;5077978;28;20476;-60